Avo Nico — CUDR5 — position and weather

sailwx.info

Track history (hours):
 
Tides and Currents Weather Stations Pressure Air Temp Water Temp Dewpoint Dewpoint Depression Visibility Wind Speed Wind Dir Waves Ship Positions

Avo Nico

Last reported at 2018-Feb-20 14:00 UTC. Time now 2018-Feb-20 14:06 UTC.
Position N 38°26' W 009°07'.

MMSI: 263423380.

Date/timePositionNaut miles runAvg speedWind from/ knotsBaromVisibWave heightAir tempDewpointWater temp
2018-Feb-20 14:00N 38°26' W 009°07'0 0.0
2018-Feb-20 13:30N 38°26' W 009°07'0 0.0
2018-Feb-20 13:00N 38°26' W 009°07'0 0.0
2018-Feb-20 12:30N 38°26' W 009°07'0 0.0
2018-Feb-20 11:59N 38°26' W 009°07'0 0.7
2018-Feb-20 11:30N 38°26' W 009°06'4 7.6
2018-Feb-20 11:00N 38°23' W 009°09'4 7.5
2018-Feb-20 10:30N 38°20' W 009°12'4 7.5
2018-Feb-20 10:00N 38°17' W 009°14'4 7.4
2018-Feb-20 09:30N 38°14' W 009°17'4 7.4
2018-Feb-20 09:00N 38°11' W 009°19'4 7.4
2018-Feb-20 08:29N 38°07' W 009°22'2 0.0
2018-Feb-18 07:09N 38°07' W 009°24'1 5.6
2018-Feb-18 07:00N 38°08' W 009°24'4 7.3
2018-Feb-18 06:30N 38°11' W 009°21'4 7.2
2018-Feb-18 06:00N 38°14' W 009°18'4 7.5
2018-Feb-18 05:30N 38°17' W 009°15'4 7.5
2018-Feb-18 05:00N 38°20' W 009°13'4 8.0
2018-Feb-18 04:30N 38°23' W 009°10'4 7.7
2018-Feb-18 04:00N 38°26' W 009°06'0 0.7
2018-Feb-18 03:30N 38°26' W 009°07'0 0.0
2018-Feb-18 03:00N 38°26' W 009°07'0 0.0
2018-Feb-18 02:30N 38°26' W 009°07'0 0.0
2018-Feb-18 02:00N 38°26' W 009°07'0 0.0
2018-Feb-18 01:30N 38°26' W 009°07'0 0.0
2018-Feb-18 00:59N 38°26' W 009°07'0 0.0
2018-Feb-18 00:30N 38°26' W 009°07'0 0.0
2018-Feb-18 00:00N 38°26' W 009°07'0 0.0
2018-Feb-17 23:30N 38°26' W 009°07'0 0.0
2018-Feb-17 23:00N 38°26' W 009°07'0 0.0
2018-Feb-17 22:30N 38°26' W 009°07'0 0.0
2018-Feb-17 22:00N 38°26' W 009°07'0 0.0
2018-Feb-17 21:30N 38°26' W 009°07'0 0.0
2018-Feb-17 21:00N 38°26' W 009°07'1 2.1
2018-Feb-17 20:30N 38°25' W 009°07'4 8.1
2018-Feb-17 19:59N 38°22' W 009°10'4 7.9
2018-Feb-17 19:30N 38°19' W 009°13'4 7.9
2018-Feb-17 19:00N 38°15' W 009°16'13 0.5
2018-Feb-16 18:40N 38°05' W 009°26'2 5.1
2018-Feb-16 18:16N 38°07' W 009°24'1 4.5
2018-Feb-16 18:00N 38°06' W 009°24'1 1.2
2018-Feb-16 17:28N 38°06' W 009°25'0 0.6
2018-Feb-16 17:00N 38°06' W 009°25'1 0.0
2018-Feb-16 04:01N 38°07' W 009°25'0 4.8
2018-Feb-16 04:00N 38°07' W 009°25'2 3.6
2018-Feb-16 03:29N 38°08' W 009°23'3 7.4
2018-Feb-16 03:00N 38°11' W 009°21'4 7.4
2018-Feb-16 02:30N 38°14' W 009°18'4 7.8
2018-Feb-16 02:00N 38°17' W 009°15'4 7.9
2018-Feb-16 01:30N 38°20' W 009°12'4 7.9
2018-Feb-16 01:00N 38°23' W 009°09'4 7.2
2018-Feb-16 00:30N 38°26' W 009°06'0 0.5
2018-Feb-16 00:00N 38°26' W 009°07'0 0.0
2018-Feb-15 23:30N 38°26' W 009°07'0 0.0
2018-Feb-15 23:00N 38°26' W 009°07'0 0.0
2018-Feb-15 22:30N 38°26' W 009°07'0 0.0
2018-Feb-15 22:00N 38°26' W 009°07'0 0.0
2018-Feb-15 21:30N 38°26' W 009°07'0 0.0
2018-Feb-15 21:00N 38°26' W 009°07'0 0.0
2018-Feb-15 20:30N 38°26' W 009°07'0 0.0
2018-Feb-15 20:00N 38°26' W 009°07'0 0.0
2018-Feb-15 19:30N 38°26' W 009°07'0 0.0
2018-Feb-15 19:00N 38°26' W 009°07'0 0.0
2018-Feb-15 18:30N 38°26' W 009°07'0 0.0
2018-Feb-15 18:00N 38°26' W 009°07'0 0.0
2018-Feb-15 17:30N 38°26' W 009°07'0 0.0
2018-Feb-15 17:00N 38°26' W 009°07'0 0.0
2018-Feb-15 16:30N 38°26' W 009°07'0 0.0
2018-Feb-15 16:00N 38°26' W 009°07'0 0.0
2018-Feb-15 15:30N 38°26' W 009°07'0 0.0
2018-Feb-15 15:00N 38°26' W 009°07'0 0.0
2018-Feb-15 14:30N 38°26' W 009°07'0 0.0
2018-Feb-15 14:00N 38°26' W 009°07'0 0.0
2018-Feb-15 13:29N 38°26' W 009°07'0 0.0
2018-Feb-15 13:00N 38°26' W 009°07'0 0.4
2018-Feb-15 12:30N 38°26' W 009°07'4 7.7
2018-Feb-15 11:58N 38°23' W 009°09'4 8.1
2018-Feb-15 11:30N 38°20' W 009°12'26 1.1
2018-Feb-14 11:48N 37°58' W 009°31'1 2.4
2018-Feb-14 11:30N 37°57' W 009°31'8 0.2
2018-Feb-12 22:32N 38°05' W 009°26'0 1.7
2018-Feb-12 22:26N 38°05' W 009°26'3 4.5
2018-Feb-12 21:41N 38°08' W 009°24'2 7.3
2018-Feb-12 21:25N 38°09' W 009°22'3 7.4
2018-Feb-12 21:00N 38°12' W 009°20'4 7.3
2018-Feb-12 20:30N 38°15' W 009°17'4 7.4
2018-Feb-12 20:00N 38°17' W 009°14'9 7.3
2018-Feb-12 18:48N 38°25' W 009°08'2 6.7
2018-Feb-12 18:30N 38°26' W 009°06'1 1.3
2018-Feb-12 17:58N 38°26' W 009°07'1 1.5
2018-Feb-12 17:28N 38°26' W 009°07'0 0.0
2018-Feb-12 16:59N 38°26' W 009°07'0 0.0
2018-Feb-12 16:30N 38°26' W 009°07'0 0.0
2018-Feb-12 16:00N 38°26' W 009°07'0 0.0
2018-Feb-12 15:29N 38°26' W 009°07'0 0.8
2018-Feb-12 15:00N 38°26' W 009°06'6 7.9
2018-Feb-12 14:15N 38°21' W 009°11'2 7.5
2018-Feb-12 14:00N 38°20' W 009°12'4 7.5
2018-Feb-12 13:30N 38°17' W 009°15'10 0.3
2018-Feb-11 05:25N 38°09' W 009°23'3 7.5
2018-Feb-11 05:00N 38°11' W 009°20'4 7.5
2018-Feb-11 04:30N 38°14' W 009°18'4 7.4
2018-Feb-11 04:00N 38°17' W 009°15'4 7.4
2018-Feb-11 03:30N 38°20' W 009°12'4 7.6
2018-Feb-11 03:00N 38°23' W 009°09'4 7.4
2018-Feb-11 02:30N 38°26' W 009°06'0 1.0
2018-Feb-11 02:00N 38°26' W 009°07'  
Track history (hours):
 
Tides and Currents Weather Stations Pressure Air Temp Water Temp Dewpoint Dewpoint Depression Visibility Wind Speed Wind Dir Waves Ship Positions

Avo Nico

Last reported at 2018-Feb-20 14:00 UTC. Time now 2018-Feb-20 14:06 UTC.
Position N 38°26' W 009°07'.

MMSI: 263423380.

Date/timePositionNaut miles runAvg speedWind from/ knotsBaromVisibWave heightAir tempDewpointWater temp
2018-Feb-20 14:00N 38°26' W 009°07'0 0.0
2018-Feb-20 13:30N 38°26' W 009°07'0 0.0
2018-Feb-20 13:00N 38°26' W 009°07'0 0.0
2018-Feb-20 12:30N 38°26' W 009°07'0 0.0
2018-Feb-20 11:59N 38°26' W 009°07'0 0.7
2018-Feb-20 11:30N 38°26' W 009°06'4 7.6
2018-Feb-20 11:00N 38°23' W 009°09'4 7.5
2018-Feb-20 10:30N 38°20' W 009°12'4 7.5
2018-Feb-20 10:00N 38°17' W 009°14'4 7.4
2018-Feb-20 09:30N 38°14' W 009°17'4 7.4
2018-Feb-20 09:00N 38°11' W 009°19'4 7.4
2018-Feb-20 08:29N 38°07' W 009°22'2 0.0
2018-Feb-18 07:09N 38°07' W 009°24'1 5.6
2018-Feb-18 07:00N 38°08' W 009°24'4 7.3
2018-Feb-18 06:30N 38°11' W 009°21'4 7.2
2018-Feb-18 06:00N 38°14' W 009°18'4 7.5
2018-Feb-18 05:30N 38°17' W 009°15'4 7.5
2018-Feb-18 05:00N 38°20' W 009°13'4 8.0
2018-Feb-18 04:30N 38°23' W 009°10'4 7.7
2018-Feb-18 04:00N 38°26' W 009°06'0 0.7
2018-Feb-18 03:30N 38°26' W 009°07'0 0.0
2018-Feb-18 03:00N 38°26' W 009°07'0 0.0
2018-Feb-18 02:30N 38°26' W 009°07'0 0.0
2018-Feb-18 02:00N 38°26' W 009°07'0 0.0
2018-Feb-18 01:30N 38°26' W 009°07'0 0.0
2018-Feb-18 00:59N 38°26' W 009°07'0 0.0
2018-Feb-18 00:30N 38°26' W 009°07'0 0.0
2018-Feb-18 00:00N 38°26' W 009°07'0 0.0
2018-Feb-17 23:30N 38°26' W 009°07'0 0.0
2018-Feb-17 23:00N 38°26' W 009°07'0 0.0
2018-Feb-17 22:30N 38°26' W 009°07'0 0.0
2018-Feb-17 22:00N 38°26' W 009°07'0 0.0
2018-Feb-17 21:30N 38°26' W 009°07'0 0.0
2018-Feb-17 21:00N 38°26' W 009°07'1 2.1
2018-Feb-17 20:30N 38°25' W 009°07'4 8.1
2018-Feb-17 19:59N 38°22' W 009°10'4 7.9
2018-Feb-17 19:30N 38°19' W 009°13'4 7.9
2018-Feb-17 19:00N 38°15' W 009°16'13 0.5
2018-Feb-16 18:40N 38°05' W 009°26'2 5.1
2018-Feb-16 18:16N 38°07' W 009°24'1 4.5
2018-Feb-16 18:00N 38°06' W 009°24'1 1.2
2018-Feb-16 17:28N 38°06' W 009°25'0 0.6
2018-Feb-16 17:00N 38°06' W 009°25'1 0.0
2018-Feb-16 04:01N 38°07' W 009°25'0 4.8
2018-Feb-16 04:00N 38°07' W 009°25'2 3.6
2018-Feb-16 03:29N 38°08' W 009°23'3 7.4
2018-Feb-16 03:00N 38°11' W 009°21'4 7.4
2018-Feb-16 02:30N 38°14' W 009°18'4 7.8
2018-Feb-16 02:00N 38°17' W 009°15'4 7.9
2018-Feb-16 01:30N 38°20' W 009°12'4 7.9
2018-Feb-16 01:00N 38°23' W 009°09'4 7.2
2018-Feb-16 00:30N 38°26' W 009°06'0 0.5
2018-Feb-16 00:00N 38°26' W 009°07'0 0.0
2018-Feb-15 23:30N 38°26' W 009°07'0 0.0
2018-Feb-15 23:00N 38°26' W 009°07'0 0.0
2018-Feb-15 22:30N 38°26' W 009°07'0 0.0
2018-Feb-15 22:00N 38°26' W 009°07'0 0.0
2018-Feb-15 21:30N 38°26' W 009°07'0 0.0
2018-Feb-15 21:00N 38°26' W 009°07'0 0.0
2018-Feb-15 20:30N 38°26' W 009°07'0 0.0
2018-Feb-15 20:00N 38°26' W 009°07'0 0.0
2018-Feb-15 19:30N 38°26' W 009°07'0 0.0
2018-Feb-15 19:00N 38°26' W 009°07'0 0.0
2018-Feb-15 18:30N 38°26' W 009°07'0 0.0
2018-Feb-15 18:00N 38°26' W 009°07'0 0.0
2018-Feb-15 17:30N 38°26' W 009°07'0 0.0
2018-Feb-15 17:00N 38°26' W 009°07'0 0.0
2018-Feb-15 16:30N 38°26' W 009°07'0 0.0
2018-Feb-15 16:00N 38°26' W 009°07'0 0.0
2018-Feb-15 15:30N 38°26' W 009°07'0 0.0
2018-Feb-15 15:00N 38°26' W 009°07'0 0.0
2018-Feb-15 14:30N 38°26' W 009°07'0 0.0
2018-Feb-15 14:00N 38°26' W 009°07'0 0.0
2018-Feb-15 13:29N 38°26' W 009°07'0 0.0
2018-Feb-15 13:00N 38°26' W 009°07'0 0.4
2018-Feb-15 12:30N 38°26' W 009°07'4 7.7
2018-Feb-15 11:58N 38°23' W 009°09'4 8.1
2018-Feb-15 11:30N 38°20' W 009°12'26 1.1
2018-Feb-14 11:48N 37°58' W 009°31'1 2.4
2018-Feb-14 11:30N 37°57' W 009°31'8 0.2
2018-Feb-12 22:32N 38°05' W 009°26'0 1.7
2018-Feb-12 22:26N 38°05' W 009°26'3 4.5
2018-Feb-12 21:41N 38°08' W 009°24'2 7.3
2018-Feb-12 21:25N 38°09' W 009°22'3 7.4
2018-Feb-12 21:00N 38°12' W 009°20'4 7.3
2018-Feb-12 20:30N 38°15' W 009°17'4 7.4
2018-Feb-12 20:00N 38°17' W 009°14'9 7.3
2018-Feb-12 18:48N 38°25' W 009°08'2 6.7
2018-Feb-12 18:30N 38°26' W 009°06'1 1.3
2018-Feb-12 17:58N 38°26' W 009°07'1 1.5
2018-Feb-12 17:28N 38°26' W 009°07'0 0.0
2018-Feb-12 16:59N 38°26' W 009°07'0 0.0
2018-Feb-12 16:30N 38°26' W 009°07'0 0.0
2018-Feb-12 16:00N 38°26' W 009°07'0 0.0
2018-Feb-12 15:29N 38°26' W 009°07'0 0.8
2018-Feb-12 15:00N 38°26' W 009°06'6 7.9
2018-Feb-12 14:15N 38°21' W 009°11'2 7.5
2018-Feb-12 14:00N 38°20' W 009°12'4 7.5
2018-Feb-12 13:30N 38°17' W 009°15'10 0.3
2018-Feb-11 05:25N 38°09' W 009°23'3 7.5
2018-Feb-11 05:00N 38°11' W 009°20'4 7.5
2018-Feb-11 04:30N 38°14' W 009°18'4 7.4
2018-Feb-11 04:00N 38°17' W 009°15'4 7.4
2018-Feb-11 03:30N 38°20' W 009°12'4 7.6
2018-Feb-11 03:00N 38°23' W 009°09'4 7.4
2018-Feb-11 02:30N 38°26' W 009°06'0 1.0
2018-Feb-11 02:00N 38°26' W 009°07'  

Dump ship's entire track history